createdAt,value
2022-08-24T00:00:17.920Z,93.28
2022-08-24T00:03:03.725Z,76.57
2022-08-24T00:05:49.859Z,62.72
2022-08-24T00:08:36.923Z,60.95
2022-08-24T00:11:22.966Z,46.85
2022-08-24T00:14:08.893Z,60.28
2022-08-24T00:16:54.577Z,53.72
2022-08-24T00:19:40.335Z,73.53
2022-08-24T00:22:25.842Z,63.60
2022-08-24T00:25:13.600Z,61.08
2022-08-24T00:27:59.406Z,69.32
2022-08-24T00:30:45.168Z,49.08
2022-08-24T00:33:30.852Z,52.00
2022-08-24T00:36:17.731Z,51.70
2022-08-24T00:39:04.527Z,65.97
2022-08-24T00:41:51.991Z,58.38
2022-08-24T00:44:37.725Z,40.88
2022-08-24T00:47:33.181Z,41.35
2022-08-24T00:50:36.922Z,59.47
2022-08-24T00:53:32.358Z,51.90
2022-08-24T00:56:24.843Z,52.85
2022-08-24T00:59:17.763Z,40.38
2022-08-24T01:02:15.601Z,32.50
2022-08-24T01:05:06.896Z,44.05
2022-08-24T01:07:52.486Z,48.25
2022-08-24T01:10:55.072Z,55.40
2022-08-24T01:13:44.385Z,44.33
2022-08-24T01:16:49.256Z,58.70
2022-08-24T01:19:43.870Z,42.92
2022-08-24T01:22:47.717Z,34.20
2022-08-24T01:25:35.360Z,46.67
2022-08-24T01:28:27.425Z,42.17
2022-08-24T01:31:13.758Z,35.95
2022-08-24T01:33:59.429Z,41.92
2022-08-24T01:36:56.808Z,38.85
2022-08-24T01:39:49.101Z,40.80
2022-08-24T01:42:35.079Z,44.00
2022-08-24T01:45:21.209Z,38.80
2022-08-24T01:48:06.389Z,51.22
2022-08-24T01:50:52.702Z,35.92
2022-08-24T01:53:40.501Z,40.38
2022-08-24T01:56:25.966Z,53.00
2022-08-24T01:59:16.554Z,31.90
2022-08-24T02:02:11.949Z,32.35
2022-08-24T02:04:58.358Z,47.85
2022-08-24T02:07:44.352Z,48.08
2022-08-24T02:10:30.975Z,45.05
2022-08-24T02:13:16.559Z,45.00
2022-08-24T02:16:02.750Z,34.38
2022-08-24T02:18:51.298Z,58.80
2022-08-24T02:21:36.660Z,50.10
2022-08-24T02:24:22.788Z,51.65
2022-08-24T02:27:08.848Z,39.40
2022-08-24T02:29:54.675Z,53.83
2022-08-24T02:32:40.650Z,59.95
2022-08-24T02:35:30.019Z,72.82
2022-08-24T02:38:16.424Z,50.97
2022-08-24T02:41:02.167Z,49.45
2022-08-24T02:43:49.496Z,54.90
2022-08-24T02:46:35.119Z,38.33
2022-08-24T02:49:23.090Z,36.28
2022-08-24T02:52:09.416Z,44.70
2022-08-24T02:54:56.119Z,38.83
2022-08-24T02:57:42.325Z,31.08
2022-08-24T03:00:28.071Z,44.33
2022-08-24T03:03:15.133Z,50.03
2022-08-24T03:06:00.881Z,42.65
2022-08-24T03:08:51.278Z,49.38
2022-08-24T03:11:45.440Z,51.38
2022-08-24T03:14:32.118Z,35.33
2022-08-24T03:17:17.986Z,47.58
2022-08-24T03:20:07.061Z,37.88
2022-08-24T03:22:53.411Z,40.60
2022-08-24T03:25:38.892Z,45.28
2022-08-24T03:28:25.440Z,39.95
2022-08-24T03:31:11.580Z,42.17
2022-08-24T03:33:58.729Z,46.20
2022-08-24T03:36:47.488Z,44.53
2022-08-24T03:39:34.853Z,36.63
2022-08-24T03:42:20.989Z,39.63
2022-08-24T03:45:08.318Z,40.55
2022-08-24T03:47:55.794Z,33.33
2022-08-24T03:50:45.304Z,33.65
2022-08-24T03:53:32.251Z,23.92
2022-08-24T03:56:20.079Z,56.42
2022-08-24T03:59:07.962Z,38.50
2022-08-24T04:04:45.159Z,41.40
2022-08-24T04:07:31.409Z,51.13
2022-08-24T04:10:17.127Z,44.28
2022-08-24T04:13:02.665Z,45.65
2022-08-24T04:15:50.303Z,31.52
2022-08-24T04:18:36.152Z,37.00
2022-08-24T04:21:28.471Z,43.97
2022-08-24T04:24:14.093Z,48.78
2022-08-24T04:26:59.463Z,53.78
2022-08-24T04:29:45.295Z,54.65
2022-08-24T04:32:35.243Z,39.40
2022-08-24T04:35:20.841Z,49.88
2022-08-24T04:38:07.740Z,51.28
2022-08-24T04:40:53.924Z,42.08
2022-08-24T04:43:45.292Z,44.10
2022-08-24T04:46:32.675Z,34.10
2022-08-24T04:49:18.855Z,55.00
2022-08-24T04:52:07.051Z,48.10
2022-08-24T04:54:53.516Z,43.15
2022-08-24T04:57:41.909Z,53.38
2022-08-24T05:00:27.305Z,45.65
2022-08-24T05:03:14.283Z,48.55
2022-08-24T05:05:59.579Z,47.65
2022-08-24T05:08:46.862Z,49.22
2022-08-24T05:11:35.257Z,45.30
2022-08-24T05:14:20.955Z,47.08
2022-08-24T05:17:09.345Z,49.38
2022-08-24T05:19:57.692Z,51.45
2022-08-24T05:22:43.423Z,53.63
2022-08-24T05:25:29.710Z,57.63
2022-08-24T05:28:15.200Z,60.13
2022-08-24T05:31:07.680Z,47.03
2022-08-24T05:33:53.835Z,46.17
2022-08-24T05:36:41.324Z,51.65
2022-08-24T05:39:31.613Z,48.22
2022-08-24T05:42:25.314Z,49.17
2022-08-24T05:45:12.730Z,69.22
2022-08-24T05:47:58.373Z,59.90
2022-08-24T05:51:19.609Z,54.08
2022-08-24T05:54:14.481Z,63.30
2022-08-24T05:57:21.142Z,48.42
2022-08-24T06:00:19.980Z,65.47
2022-08-24T06:03:09.114Z,53.00
2022-08-24T06:06:07.433Z,48.22
2022-08-24T06:08:56.906Z,45.72
2022-08-24T06:11:43.108Z,60.75
2022-08-24T06:14:29.831Z,57.15
2022-08-24T06:17:17.678Z,53.83
2022-08-24T06:20:04.343Z,60.10
2022-08-24T06:22:49.931Z,64.30
2022-08-24T06:25:58.749Z,45.53
2022-08-24T06:28:44.695Z,52.05
2022-08-24T06:31:39.372Z,51.17
2022-08-24T06:34:27.905Z,57.15
2022-08-24T06:37:13.428Z,57.28
2022-08-24T06:40:00.085Z,49.92
2022-08-24T06:42:47.197Z,52.80
2022-08-24T06:45:43.924Z,43.08
2022-08-24T06:48:32.601Z,56.60
2022-08-24T06:51:20.228Z,63.45
2022-08-24T06:54:06.220Z,46.00
2022-08-24T06:56:52.151Z,43.33
2022-08-24T06:59:38.179Z,49.28
2022-08-24T07:02:24.541Z,63.78
2022-08-24T07:05:11.411Z,64.72
2022-08-24T07:08:16.371Z,54.00
2022-08-24T07:11:04.215Z,41.17
2022-08-24T07:13:50.286Z,42.65
2022-08-24T07:16:36.237Z,68.97
2022-08-24T07:19:23.273Z,39.35
2022-08-24T07:22:09.477Z,61.60
2022-08-24T07:24:56.929Z,47.63
2022-08-24T07:27:42.975Z,48.83
2022-08-24T07:30:35.986Z,61.35
2022-08-24T07:33:22.492Z,46.03
2022-08-24T07:36:09.695Z,50.67
2022-08-24T07:38:57.586Z,59.08
2022-08-24T07:44:53.738Z,47.05
2022-08-24T07:47:49.520Z,37.95
2022-08-24T07:50:55.126Z,35.13
2022-08-24T07:53:53.403Z,44.22
2022-08-24T07:56:43.901Z,47.53
2022-08-24T07:59:29.538Z,49.80
2022-08-24T08:02:17.353Z,40.33
2022-08-24T08:07:55.626Z,34.10
2022-08-24T08:10:41.725Z,42.50
2022-08-24T08:13:27.252Z,35.58
2022-08-24T08:16:12.792Z,42.60
2022-08-24T08:19:13.240Z,50.33
2022-08-24T08:22:20.352Z,38.03
2022-08-24T08:25:26.040Z,52.10
2022-08-24T08:28:25.409Z,47.10
2022-08-24T08:31:12.335Z,51.92
2022-08-24T08:33:58.266Z,41.97
2022-08-24T08:36:45.615Z,46.75
2022-08-24T08:39:32.838Z,36.22
2022-08-24T08:42:28.787Z,47.60
2022-08-24T08:45:35.531Z,45.53
2022-08-24T08:49:02.873Z,43.80
2022-08-24T08:52:03.785Z,43.40
2022-08-24T08:55:29.638Z,49.65
2022-08-24T08:58:57.609Z,35.63
2022-08-24T09:02:20.903Z,44.45
2022-08-24T09:05:43.208Z,46.30
2022-08-24T09:08:44.034Z,42.58
2022-08-24T09:12:10.753Z,47.47
2022-08-24T09:15:29.336Z,45.35
2022-08-24T09:18:46.044Z,42.13
2022-08-24T09:21:44.582Z,50.47
2022-08-24T09:27:46.276Z,48.80
2022-08-24T09:31:03.820Z,52.70
2022-08-24T09:34:20.063Z,38.88
2022-08-24T09:37:43.565Z,47.28
2022-08-24T09:40:54.526Z,38.50
2022-08-24T09:44:10.273Z,48.25
2022-08-24T09:46:59.225Z,43.40
2022-08-24T09:50:22.011Z,49.75
2022-08-24T09:53:47.321Z,42.10
2022-08-24T09:57:12.547Z,39.35
2022-08-24T10:00:15.295Z,47.30
2022-08-24T10:03:37.681Z,49.60
2022-08-24T10:07:04.621Z,36.03
2022-08-24T10:10:08.172Z,59.05
2022-08-24T10:13:12.943Z,59.95
2022-08-24T10:16:20.920Z,50.40
2022-08-24T10:19:39.042Z,46.13
2022-08-24T10:22:40.138Z,53.78
2022-08-24T10:25:49.276Z,38.40
2022-08-24T10:29:07.326Z,55.97
2022-08-24T10:32:19.240Z,57.00
2022-08-24T10:35:20.172Z,39.15
2022-08-24T10:39:06.923Z,57.13
2022-08-24T10:41:58.846Z,48.33
2022-08-24T10:44:54.278Z,53.63
2022-08-24T10:48:04.585Z,50.03
2022-08-24T10:53:37.872Z,56.50
2022-08-24T10:56:40.046Z,41.78
2022-08-24T10:59:49.390Z,44.58
2022-08-24T11:02:38.190Z,53.35
2022-08-24T11:05:35.871Z,53.67
2022-08-24T11:08:25.335Z,59.22
2022-08-24T11:11:22.616Z,42.05
2022-08-24T11:14:16.710Z,54.42
2022-08-24T11:17:30.110Z,44.05
2022-08-24T11:20:26.830Z,51.45
2022-08-24T11:23:19.134Z,50.63
2022-08-24T11:26:21.626Z,46.88
2022-08-24T11:29:07.168Z,45.53
2022-08-24T11:31:54.162Z,53.78
2022-08-24T11:34:46.846Z,45.20
2022-08-24T11:37:35.254Z,36.13
2022-08-24T11:40:26.673Z,60.55
2022-08-24T11:43:30.921Z,50.83
2022-08-24T11:46:22.633Z,45.92
2022-08-24T11:49:29.322Z,39.35
2022-08-24T11:52:27.478Z,45.35
2022-08-24T11:55:46.707Z,37.00
2022-08-24T11:58:33.274Z,38.58
2022-08-24T12:01:33.138Z,42.70
2022-08-24T12:04:24.684Z,38.70
2022-08-24T12:07:25.584Z,29.55
2022-08-24T12:10:35.997Z,25.73
2022-08-24T12:13:49.740Z,32.72
2022-08-24T12:17:03.164Z,38.33
2022-08-24T12:19:59.631Z,24.15
2022-08-24T12:22:45.525Z,34.55
2022-08-24T12:25:52.142Z,23.52
2022-08-24T12:28:51.218Z,22.33
2022-08-24T12:32:01.427Z,19.88
2022-08-24T12:35:00.944Z,30.15
2022-08-24T12:37:54.805Z,17.08
2022-08-24T12:41:20.068Z,23.83
2022-08-24T12:44:15.143Z,14.52
2022-08-24T12:47:00.814Z,24.88
2022-08-24T12:49:55.380Z,12.80
2022-08-24T12:53:08.983Z,23.00
2022-08-24T12:56:18.559Z,16.20
2022-08-24T12:59:25.476Z,15.88
2022-08-24T13:02:11.016Z,16.10
2022-08-24T13:05:09.475Z,17.85
2022-08-24T13:08:11.711Z,16.63
2022-08-24T13:11:06.582Z,9.93
2022-08-24T13:13:55.267Z,21.80
2022-08-24T13:16:51.378Z,19.90
2022-08-24T13:19:43.064Z,25.40
2022-08-24T13:22:46.614Z,15.95
2022-08-24T13:25:47.735Z,25.40
2022-08-24T13:28:45.697Z,15.65
2022-08-24T13:31:42.392Z,16.95
2022-08-24T13:34:46.580Z,18.05
2022-08-24T13:37:32.664Z,20.45
2022-08-24T13:40:26.480Z,14.77
2022-08-24T13:43:36.284Z,21.33
2022-08-24T13:46:58.845Z,26.05
2022-08-24T13:50:02.044Z,12.05
2022-08-24T13:53:06.560Z,22.63
2022-08-24T13:56:34.927Z,13.52
2022-08-24T13:59:55.522Z,19.25
2022-08-24T14:03:13.647Z,17.95
2022-08-24T14:06:21.679Z,12.50
2022-08-24T14:09:25.603Z,6.50
2022-08-24T14:12:26.244Z,19.25
2022-08-24T14:15:16.091Z,13.00
2022-08-24T14:18:14.890Z,12.30
2022-08-24T14:21:53.032Z,15.48
2022-08-24T14:24:49.027Z,15.40
2022-08-24T14:27:43.071Z,16.38
2022-08-24T14:30:28.727Z,16.50
2022-08-24T14:33:27.302Z,6.97
2022-08-24T14:36:21.227Z,16.25
2022-08-24T14:39:39.365Z,10.20
2022-08-24T14:42:37.501Z,14.50
2022-08-24T14:45:48.227Z,15.43
2022-08-24T14:48:54.937Z,10.25
2022-08-24T14:51:54.399Z,12.20
2022-08-24T14:55:15.911Z,7.63
2022-08-24T14:58:11.549Z,12.95
2022-08-24T15:01:25.109Z,7.20
2022-08-24T15:04:37.154Z,12.30
2022-08-24T15:07:27.747Z,12.57
2022-08-24T15:10:15.221Z,16.17
2022-08-24T15:13:06.040Z,11.43
2022-08-24T15:16:30.611Z,11.52
2022-08-24T15:19:30.099Z,11.20
2022-08-24T15:22:29.318Z,3.97
2022-08-24T15:25:32.133Z,8.48
2022-08-24T15:28:25.855Z,14.45
2022-08-24T15:31:19.005Z,5.90
2022-08-24T15:34:05.431Z,14.30
2022-08-24T15:37:01.700Z,4.15
2022-08-24T15:39:47.219Z,12.35
2022-08-24T15:42:36.404Z,16.92
2022-08-24T15:45:23.552Z,9.13
2022-08-24T15:48:12.362Z,8.18
2022-08-24T15:50:59.493Z,10.48
2022-08-24T15:53:45.395Z,10.77
2022-08-24T15:56:40.945Z,10.50
2022-08-24T15:59:28.869Z,10.13
2022-08-24T16:02:26.813Z,11.45
2022-08-24T16:05:25.441Z,8.30
2022-08-24T16:08:14.016Z,8.20
2022-08-24T16:11:20.322Z,6.10
2022-08-24T16:14:28.584Z,11.63
2022-08-24T16:17:34.076Z,11.48
2022-08-24T16:20:22.841Z,8.52
2022-08-24T16:23:13.001Z,6.95
2022-08-24T16:26:38.992Z,6.95
2022-08-24T16:29:38.318Z,7.40
2022-08-24T16:32:40.120Z,7.60
2022-08-24T16:35:37.633Z,18.08
2022-08-24T16:38:23.134Z,8.45
2022-08-24T16:41:11.450Z,7.65
2022-08-24T16:43:57.528Z,10.77
2022-08-24T16:46:43.358Z,9.93
2022-08-24T16:49:33.909Z,10.65
2022-08-24T16:52:20.683Z,13.27
2022-08-24T16:55:07.169Z,15.25
2022-08-24T16:57:52.768Z,16.92
2022-08-24T17:00:38.440Z,10.20
2022-08-24T17:03:24.073Z,18.05
2022-08-24T17:06:12.646Z,9.70
2022-08-24T17:08:59.427Z,8.80
2022-08-24T17:11:47.042Z,10.35
2022-08-24T17:14:32.865Z,14.10
2022-08-24T17:17:21.629Z,16.25
2022-08-24T17:20:11.157Z,14.45
2022-08-24T17:22:57.750Z,12.77
2022-08-24T17:25:44.146Z,15.63
2022-08-24T17:28:30.195Z,19.52
2022-08-24T17:31:16.014Z,13.07
2022-08-24T17:34:01.924Z,18.30
2022-08-24T17:36:50.547Z,13.63
2022-08-24T17:39:36.506Z,20.73
2022-08-24T17:42:49.126Z,12.70
2022-08-24T17:45:27.997Z,20.50
2022-08-24T17:48:20.785Z,10.02
2022-08-24T17:51:06.482Z,14.15
2022-08-24T17:53:52.137Z,15.10
2022-08-24T17:56:41.132Z,18.25
2022-08-24T17:59:32.564Z,19.45
2022-08-24T18:02:18.306Z,16.67
2022-08-24T18:05:03.931Z,11.27
2022-08-24T18:07:54.454Z,17.42
2022-08-24T18:10:41.047Z,9.67
2022-08-24T18:13:27.428Z,12.95
2022-08-24T18:16:22.284Z,11.68
2022-08-24T18:19:09.570Z,20.63
2022-08-24T18:21:55.774Z,9.18
2022-08-24T18:24:42.367Z,23.42
2022-08-24T18:27:30.603Z,18.52
2022-08-24T18:30:30.773Z,26.55
2022-08-24T18:33:17.572Z,16.65
2022-08-24T18:36:03.390Z,17.13
2022-08-24T18:38:49.112Z,13.13
2022-08-24T18:41:39.406Z,15.25
2022-08-24T18:44:28.355Z,15.23
2022-08-24T18:47:17.216Z,23.35
2022-08-24T18:50:03.843Z,15.00
2022-08-24T18:52:49.242Z,21.13
2022-08-24T18:55:34.713Z,26.15
2022-08-24T18:58:20.975Z,22.35
2022-08-24T19:01:07.340Z,14.57
2022-08-24T19:03:53.606Z,26.35
2022-08-24T19:06:39.507Z,17.08
2022-08-24T19:09:25.051Z,15.68
2022-08-24T19:12:11.227Z,14.98
2022-08-24T19:14:59.406Z,10.93
2022-08-24T19:17:45.562Z,12.70
2022-08-24T19:20:33.042Z,14.13
2022-08-24T19:23:30.119Z,16.30
2022-08-24T19:26:15.790Z,17.85
2022-08-24T19:29:03.845Z,18.60
2022-08-24T19:31:51.757Z,13.43
2022-08-24T19:34:37.423Z,28.98
2022-08-24T19:37:23.770Z,29.35
2022-08-24T19:40:09.500Z,16.85
2022-08-24T19:42:56.509Z,20.30
2022-08-24T19:46:01.940Z,19.92
2022-08-24T19:48:47.659Z,23.40
2022-08-24T19:51:34.771Z,20.48
2022-08-24T19:54:20.899Z,18.10
2022-08-24T19:57:36.269Z,18.77
2022-08-24T20:00:26.624Z,19.35
2022-08-24T20:03:12.928Z,31.63
2022-08-24T20:05:59.105Z,13.15
2022-08-24T20:08:48.512Z,17.63
2022-08-24T20:11:34.695Z,26.45
2022-08-24T20:14:21.866Z,22.80
2022-08-24T20:17:07.851Z,16.17
2022-08-24T20:19:55.655Z,28.83
2022-08-24T20:22:42.019Z,29.20
2022-08-24T20:25:28.013Z,23.85
2022-08-24T20:28:34.760Z,24.40
2022-08-24T20:31:28.422Z,22.60
2022-08-24T20:34:15.385Z,18.92
2022-08-24T20:37:02.069Z,19.90
2022-08-24T20:39:48.402Z,14.65
2022-08-24T20:42:34.487Z,20.50
2022-08-24T20:45:21.589Z,15.80
2022-08-24T20:48:12.236Z,15.20
2022-08-24T20:50:59.964Z,15.50
2022-08-24T20:53:49.040Z,19.33
2022-08-24T20:56:38.040Z,12.20
2022-08-24T20:59:24.363Z,21.25
2022-08-24T21:02:10.748Z,22.77
2022-08-24T21:04:57.189Z,18.33
2022-08-24T21:07:49.480Z,21.17
2022-08-24T21:10:35.287Z,15.60
2022-08-24T21:13:21.967Z,22.67
2022-08-24T21:16:11.856Z,14.23
2022-08-24T21:18:57.372Z,17.67
2022-08-24T21:21:43.622Z,18.95
2022-08-24T21:24:29.298Z,19.90
2022-08-24T21:27:14.764Z,14.00
2022-08-24T21:30:00.364Z,22.60
2022-08-24T21:33:05.845Z,18.63
2022-08-24T21:35:53.896Z,20.25
2022-08-24T21:38:40.226Z,18.63
2022-08-24T21:41:31.466Z,12.32
2022-08-24T21:44:17.101Z,11.20
2022-08-24T21:47:03.717Z,21.55
2022-08-24T21:49:49.416Z,18.95
2022-08-24T21:52:35.336Z,12.68
2022-08-24T21:55:21.617Z,18.30
2022-08-24T21:58:08.023Z,10.55
2022-08-24T22:00:53.833Z,15.27
2022-08-24T22:03:44.785Z,9.50
2022-08-24T22:06:31.898Z,21.20
2022-08-24T22:09:17.660Z,13.40
2022-08-24T22:12:03.427Z,15.27
2022-08-24T22:14:49.108Z,15.82
2022-08-24T22:17:34.862Z,15.98
2022-08-24T22:20:22.324Z,19.90
2022-08-24T22:23:09.459Z,17.20
2022-08-24T22:25:55.037Z,15.30
2022-08-24T22:28:41.816Z,16.02
2022-08-24T22:31:30.634Z,18.70
2022-08-24T22:34:19.561Z,21.40
2022-08-24T22:37:06.282Z,19.15
2022-08-24T22:39:51.975Z,23.65
2022-08-24T22:42:38.057Z,21.25
2022-08-24T22:45:23.398Z,23.63
2022-08-24T22:48:08.892Z,13.90
2022-08-24T22:50:54.660Z,11.10
2022-08-24T22:53:41.328Z,25.30
2022-08-24T22:56:33.851Z,21.13
2022-08-24T22:59:24.440Z,11.65
2022-08-24T23:02:13.364Z,17.10
2022-08-24T23:04:58.717Z,15.52
2022-08-24T23:07:44.146Z,16.00
2022-08-24T23:10:29.625Z,8.40
2022-08-24T23:13:15.173Z,7.95
2022-08-24T23:16:08.963Z,13.77
2022-08-24T23:19:13.573Z,19.45
2022-08-24T23:21:58.867Z,10.77
2022-08-24T23:24:45.160Z,12.35
2022-08-24T23:27:33.056Z,13.95
2022-08-24T23:30:23.664Z,9.55
2022-08-24T23:33:09.307Z,9.57
2022-08-24T23:35:55.011Z,14.65
2022-08-24T23:38:42.833Z,17.67
2022-08-24T23:41:31.809Z,11.73
2022-08-24T23:44:21.862Z,30.52
2022-08-24T23:47:07.497Z,17.30
2022-08-24T23:49:52.717Z,18.13
2022-08-24T23:52:39.350Z,24.80
2022-08-24T23:55:25.537Z,18.05
2022-08-24T23:58:10.711Z,11.23
